Time;durP1;ratioP1;P1;durP2;ratioP2;P2;SDS_P1;SDS_P2;PMS_P1;PMS_P2;Temp;Humidity;BMP_temperature;BMP_pressure;BME280_temperature;BME280_humidity;BME280_pressure;Samples;Min_cycle;Max_cycle;Signal;HPM_P1;HPM_P2
2023/06/18 00:00:58;;;;;;;3.13;1.80;;;;;;;15.48;100.00;99786.16;6149522;23;20033;-88
2023/06/18 00:03:25;;;;;;;0.38;0.38;;;;;;;15.45;100.00;99795.47;6099991;23;20037;-87
2023/06/18 00:05:52;;;;;;;0.17;0.17;;;;;;;15.49;100.00;99800.91;6123665;23;20473;-88
2023/06/18 00:08:18;;;;;;;6.32;1.70;;;;;;;15.34;100.00;99789.63;6124868;23;20064;-88
2023/06/18 00:10:44;;;;;;;0.32;0.32;;;;;;;15.23;100.00;99795.00;6147538;23;20018;-89
2023/06/18 00:13:09;;;;;;;0.77;0.77;;;;;;;15.23;100.00;99779.00;6147668;23;20010;-88
2023/06/18 00:15:35;;;;;;;0.68;0.68;;;;;;;15.35;100.00;99780.03;6124826;23;20017;-88
2023/06/18 00:18:00;;;;;;;0.25;0.25;;;;;;;15.38;100.00;99785.44;6124595;23;20174;-88
2023/06/18 00:20:26;;;;;;;0.60;0.60;;;;;;;15.31;100.00;99791.38;6124814;23;20445;-87
2023/06/18 00:22:53;;;;;;;0.63;0.55;;;;;;;15.27;100.00;99790.00;6149576;23;20016;-88
2023/06/18 00:25:19;;;;;;;1.85;1.65;;;;;;;15.27;100.00;99785.19;6125584;23;20079;-88
2023/06/18 00:27:46;;;;;;;0.65;0.65;;;;;;;15.38;100.00;99790.25;6124806;23;20006;-88
2023/06/18 00:30:13;;;;;;;0.28;0.28;;;;;;;15.40;100.00;99782.16;6124296;23;20435;-88
2023/06/18 00:32:41;;;;;;;0.20;0.20;;;;;;;15.43;100.00;99789.59;6125010;23;20005;-88
2023/06/18 00:35:06;;;;;;;0.00;0.00;;;;;;;15.44;100.00;99804.34;6124403;23;20013;-88
2023/06/18 00:37:34;;;;;;;0.20;0.20;;;;;;;15.38;100.00;99807.00;6124873;23;20151;-88
2023/06/18 00:39:59;;;;;;;0.55;0.50;;;;;;;15.25;100.00;99800.88;6124725;23;20064;-88
2023/06/18 00:42:28;;;;;;;0.52;0.52;;;;;;;15.15;100.00;99794.56;6125158;23;20010;-89
2023/06/18 00:44:54;;;;;;;0.65;0.65;;;;;;;15.07;100.00;99787.00;6124488;23;20024;-88
2023/06/18 00:47:20;;;;;;;0.20;0.20;;;;;;;15.02;100.00;99787.66;6125187;23;20017;-88
2023/06/18 00:49:46;;;;;;;1.08;0.70;;;;;;;15.08;100.00;99791.38;6148385;23;20037;-88
2023/06/18 00:52:12;;;;;;;0.55;0.30;;;;;;;15.06;100.00;99799.44;6124745;23;20025;-88
2023/06/18 00:54:40;;;;;;;1.55;1.35;;;;;;;15.02;100.00;99807.97;6150144;23;20056;-87
2023/06/18 00:57:08;;;;;;;1.85;1.08;;;;;;;14.93;100.00;99805.22;6125164;23;20018;-87
2023/06/18 00:59:34;;;;;;;1.48;1.38;;;;;;;14.92;100.00;99798.88;6149257;23;20006;-88
2023/06/18 01:02:01;;;;;;;0.25;0.25;;;;;;;14.91;100.00;99800.13;6118793;22;20021;-92
2023/06/18 01:07:15;;;;;;;0.57;0.57;;;;;;;14.48;100.00;99760.75;6240546;23;20388;-87
2023/06/18 01:09:41;;;;;;;0.22;0.22;;;;;;;14.72;100.00;99783.94;6188917;23;20020;-88
2023/06/18 01:12:07;;;;;;;0.85;0.85;;;;;;;14.71;100.00;99799.91;6239443;23;20067;-88
2023/06/18 01:14:37;;;;;;;0.57;0.57;;;;;;;14.67;100.00;99793.72;6214671;23;20005;-89
2023/06/18 01:17:05;;;;;;;1.33;1.23;;;;;;;14.63;100.00;99787.53;6190688;23;20020;-88
2023/06/18 01:19:47;;;;;;;1.20;0.80;;;;;;;14.57;100.00;99794.19;6213135;23;20057;-88
2023/06/18 01:22:30;;;;;;;1.58;1.38;;;;;;;14.63;100.00;99781.16;6239271;23;20012;-89
2023/06/18 01:25:03;;;;;;;0.75;0.75;;;;;;;14.59;100.00;99770.16;6239705;23;20032;-88
2023/06/18 01:27:33;;;;;;;;;;;;;;;14.66;100.00;99792.16;6190057;23;20020;-88
2023/06/18 01:30:00;;;;;;;0.93;0.80;;;;;;;14.67;100.00;99782.56;6239733;23;20170;-88
2023/06/18 01:32:26;;;;;;;0.50;0.50;;;;;;;14.69;100.00;99785.63;6214390;23;20008;-89
2023/06/18 01:34:54;;;;;;;0.85;0.60;;;;;;;14.67;100.00;99778.97;6214361;23;20000;-88
2023/06/18 01:37:45;;;;;;;0.40;0.40;;;;;;;14.73;100.00;99785.47;6214248;23;20071;-88
2023/06/18 01:40:32;;;;;;;0.65;0.60;;;;;;;14.68;100.00;99789.66;6239457;23;20016;-89
2023/06/18 01:43:41;;;;;;;0.40;0.40;;;;;;;14.61;100.00;99784.41;6240290;23;20020;-88
2023/06/18 01:46:09;;;;;;;1.65;1.20;;;;;;;14.48;100.00;99794.25;6187219;23;20046;-88
2023/06/18 01:48:41;;;;;;;0.65;0.65;;;;;;;14.45;100.00;99782.00;6240365;23;20336;-88
2023/06/18 01:51:12;;;;;;;3.33;1.10;;;;;;;14.44;100.00;99778.41;6213891;23;20444;-88
2023/06/18 01:53:39;;;;;;;3.50;1.50;;;;;;;14.42;100.00;99780.16;6190170;23;20016;-88
2023/06/18 01:56:09;;;;;;;0.15;0.15;;;;;;;14.45;100.00;99784.78;6239970;23;20480;-88
2023/06/18 01:58:36;;;;;;;0.55;0.45;;;;;;;14.41;100.00;99781.38;6215527;23;20072;-88
2023/06/18 02:01:03;;;;;;;1.13;1.08;;;;;;;14.30;100.00;99770.69;6214323;23;20004;-88
2023/06/18 02:03:28;;;;;;;1.23;1.13;;;;;;;14.29;100.00;99773.94;6188602;23;20011;-88
2023/06/18 02:05:54;;;;;;;0.65;0.65;;;;;;;14.25;100.00;99790.06;6253497;22;20015;-88
2023/06/18 02:08:20;;;;;;;0.15;0.15;;;;;;;14.11;100.00;99774.78;6270342;22;20015;-88
2023/06/18 02:10:46;;;;;;;0.68;0.68;;;;;;;14.16;100.00;99779.69;6219202;22;20309;-88
2023/06/18 02:13:11;;;;;;;0.40;0.40;;;;;;;14.08;100.00;99778.47;6218584;22;20020;-89
2023/06/18 02:15:37;;;;;;;1.52;1.42;;;;;;;13.98;100.00;99780.50;6218958;22;20015;-89
2023/06/18 02:18:03;;;;;;;1.85;1.05;;;;;;;13.89;100.00;99774.16;6244416;22;20000;-89
2023/06/18 02:20:29;;;;;;;0.80;0.70;;;;;;;13.97;100.00;99792.91;6218502;22;20016;-88
2023/06/18 02:22:55;;;;;;;0.60;0.55;;;;;;;13.97;100.00;99797.69;6195026;22;20190;-89
2023/06/18 02:25:28;;;;;;;0.40;0.40;;;;;;;13.98;100.00;99785.31;6243582;22;20012;-88
2023/06/18 02:27:57;;;;;;;0.30;0.30;;;;;;;13.93;100.00;99786.72;6272292;22;20015;-89
2023/06/18 02:30:25;;;;;;;0.13;0.13;;;;;;;13.71;100.00;99774.19;6243027;22;20016;-88
2023/06/18 02:32:52;;;;;;;0.98;0.98;;;;;;;13.64;100.00;99778.03;6193711;22;20010;-89
2023/06/18 02:35:18;;;;;;;1.60;1.50;;;;;;;13.63;100.00;99796.00;6192796;22;20007;-89
2023/06/18 02:37:44;;;;;;;2.90;0.85;;;;;;;13.67;100.00;99791.03;6243996;22;20089;-88
2023/06/18 02:40:13;;;;;;;1.85;1.05;;;;;;;13.68;100.00;99802.97;6244535;22;20062;-89
2023/06/18 02:42:46;;;;;;;0.82;0.80;;;;;;;13.68;100.00;99797.38;6245067;22;20370;-88
2023/06/18 02:45:14;;;;;;;0.25;0.25;;;;;;;13.61;100.00;99792.91;6243959;22;20004;-88
2023/06/18 02:47:39;;;;;;;0.80;0.80;;;;;;;13.55;100.00;99787.16;6245533;22;20395;-89
2023/06/18 02:50:07;;;;;;;1.13;1.05;;;;;;;13.58;100.00;99793.84;6218520;22;20023;-88
2023/06/18 02:52:32;;;;;;;0.13;0.03;;;;;;;13.43;100.00;99799.22;6194896;22;20004;-89
2023/06/18 02:54:58;;;;;;;0.70;0.70;;;;;;;13.37;100.00;99786.38;6272100;22;20057;-88
2023/06/18 02:57:24;;;;;;;0.47;0.47;;;;;;;13.31;100.00;99785.41;6221538;22;20320;-88
2023/06/18 02:59:50;;;;;;;0.70;0.70;;;;;;;13.35;100.00;99803.53;6199580;22;20007;-89
2023/06/18 03:02:16;;;;;;;0.47;0.47;;;;;;;13.35;100.00;99791.63;6199380;22;20007;-88
2023/06/18 03:04:41;;;;;;;0.65;0.65;;;;;;;13.32;100.00;99798.13;6217383;22;20008;-89
2023/06/18 03:07:08;;;;;;;0.38;0.38;;;;;;;13.40;100.00;99802.16;6219323;22;20019;-89
2023/06/18 03:09:34;;;;;;;0.40;0.40;;;;;;;13.37;100.00;99794.72;6219392;22;20395;-89
2023/06/18 03:12:00;;;;;;;0.55;0.55;;;;;;;13.51;100.00;99806.03;6194757;22;20257;-88
2023/06/18 03:14:26;;;;;;;0.68;0.60;;;;;;;13.56;100.00;99799.09;6243537;22;20015;-89
2023/06/18 03:16:52;;;;;;;0.50;0.30;;;;;;;13.49;100.00;99786.25;6244268;22;20126;-88
2023/06/18 03:19:20;;;;;;;0.68;0.68;;;;;;;13.61;100.00;99803.28;6218428;22;20023;-89
2023/06/18 03:21:45;;;;;;;0.50;0.50;;;;;;;13.59;100.00;99803.72;6218805;22;20015;-88
2023/06/18 03:24:11;;;;;;;0.80;0.80;;;;;;;13.45;100.00;99798.78;6219057;22;20031;-88
2023/06/18 03:26:37;;;;;;;2.15;1.23;;;;;;;13.42;100.00;99803.25;6218760;22;20038;-89
2023/06/18 03:29:05;;;;;;;0.82;0.82;;;;;;;13.46;100.00;99805.91;6270805;22;20400;-89
2023/06/18 03:31:32;;;;;;;0.30;0.30;;;;;;;13.40;100.00;99799.38;6272402;22;20011;-89
2023/06/18 03:34:01;;;;;;;1.20;0.45;;;;;;;13.37;100.00;99789.16;6245020;22;20070;-89
2023/06/18 03:36:29;;;;;;;0.25;0.25;;;;;;;13.42;100.00;99794.91;6244491;22;20023;-88
2023/06/18 03:38:57;;;;;;;0.82;0.70;;;;;;;13.37;100.00;99780.81;6220065;22;20111;-90
2023/06/18 03:41:24;;;;;;;0.55;0.55;;;;;;;13.53;100.00;99802.81;6271355;22;20035;-90
2023/06/18 03:43:49;;;;;;;0.65;0.65;;;;;;;13.47;100.00;99796.28;6194297;22;20018;-90
2023/06/18 03:46:15;;;;;;;0.22;0.22;;;;;;;13.44;100.00;99780.50;6220434;22;20007;-88
2023/06/18 03:48:43;;;;;;;3.40;0.57;;;;;;;13.65;100.00;99810.25;6246689;22;20008;-88
2023/06/18 03:51:08;;;;;;;0.60;0.60;;;;;;;13.64;100.00;99808.69;6219799;22;20012;-88
2023/06/18 03:53:37;;;;;;;0.35;0.32;;;;;;;13.65;100.00;99809.47;6246499;22;20018;-89
2023/06/18 03:56:04;;;;;;;0.70;0.70;;;;;;;13.62;100.00;99811.19;6220979;22;20098;-88
2023/06/18 03:58:30;;;;;;;0.65;0.65;;;;;;;13.66;100.00;99805.44;6221396;22;20008;-88
2023/06/18 04:00:56;;;;;;;0.98;0.95;;;;;;;13.57;100.00;99814.56;6244984;22;20091;-90
2023/06/18 04:03:22;;;;;;;1.48;1.38;;;;;;;13.60;100.00;99813.63;6220831;22;20451;-87
2023/06/18 04:05:49;;;;;;;1.48;1.10;;;;;;;13.63;100.00;99823.09;6239162;23;20083;-88
2023/06/18 04:08:16;;;;;;;0.17;0.17;;;;;;;13.59;100.00;99809.28;6216050;23;20460;-88
2023/06/18 04:10:43;;;;;;;0.47;0.47;;;;;;;13.65;100.00;99815.81;6216029;23;20008;-88
2023/06/18 04:13:16;;;;;;;0.60;0.60;;;;;;;13.71;100.00;99816.00;6215889;23;20023;-88
2023/06/18 04:15:45;;;;;;;1.33;0.90;;;;;;;13.78;100.00;99819.25;6214898;23;20008;-89
2023/06/18 04:18:14;;;;;;;0.93;0.90;;;;;;;13.69;100.00;99802.50;6216058;23;20016;-88
2023/06/18 04:20:39;;;;;;;1.48;1.17;;;;;;;13.59;100.00;99805.75;6240180;23;20340;-88
2023/06/18 04:23:06;;;;;;;0.25;0.25;;;;;;;13.59;100.00;99812.09;6216046;23;20008;-88
2023/06/18 04:25:33;;;;;;;0.75;0.75;;;;;;;13.68;100.00;99819.69;6215168;23;20448;-90
2023/06/18 04:28:02;;;;;;;0.32;0.32;;;;;;;13.71;100.00;99827.88;6214813;23;20502;-90
2023/06/18 04:30:30;;;;;;;3.83;0.43;;;;;;;13.67;100.00;99823.72;6213694;23;20120;-88
2023/06/18 04:32:57;;;;;;;0.85;0.30;;;;;;;13.72;100.00;99809.16;6213926;23;20011;-88
2023/06/18 04:35:23;;;;;;;0.47;0.47;;;;;;;13.78;100.00;99824.81;6208072;23;20447;-89
2023/06/18 04:37:49;;;;;;;1.60;0.93;;;;;;;13.79;100.00;99820.78;6210365;23;20015;-89
2023/06/18 04:40:18;;;;;;;1.50;1.42;;;;;;;13.71;100.00;99793.69;6187176;23;20016;-91
2023/06/18 04:42:46;;;;;;;2.92;0.80;;;;;;;13.73;100.00;99783.63;6216147;23;20014;-88
2023/06/18 04:45:18;;;;;;;0.57;0.40;;;;;;;13.89;100.00;99785.31;6189820;23;20010;-87
2023/06/18 04:47:43;;;;;;;0.17;0.17;;;;;;;14.06;100.00;99788.56;6213480;23;20103;-89
2023/06/18 04:50:09;;;;;;;1.05;1.02;;;;;;;14.27;100.00;99810.69;6239466;23;20055;-91
2023/06/18 04:52:45;;;;;;;5.53;1.75;;;;;;;14.32;100.00;99789.72;6217746;23;20286;-88
2023/06/18 04:55:13;;;;;;;1.23;1.02;;;;;;;14.63;100.00;99809.84;6215998;23;20020;-90
2023/06/18 04:57:40;;;;;;;0.88;0.88;;;;;;;14.82;100.00;99816.91;6215207;23;20459;-90
2023/06/18 05:00:08;;;;;;;3.17;1.25;;;;;;;15.08;100.00;99836.06;6238125;23;20012;-88
2023/06/18 05:02:36;;;;;;;0.30;0.30;;;;;;;15.24;100.00;99846.84;6239740;23;20008;-90
2023/06/18 05:05:01;;;;;;;1.75;1.08;;;;;;;15.41;100.00;99845.19;6240745;22;20463;-89
2023/06/18 05:07:27;;;;;;;1.15;1.05;;;;;;;15.57;100.00;99846.84;6243007;22;20026;-88
2023/06/18 05:09:53;;;;;;;1.88;1.48;;;;;;;15.63;100.00;99840.13;6243626;22;20333;-89
2023/06/18 05:12:19;;;;;;;1.15;0.93;;;;;;;15.73;100.00;99844.38;6219652;22;20042;-90
2023/06/18 05:14:45;;;;;;;0.88;0.88;;;;;;;15.91;100.00;99856.69;6242414;22;20024;-90
2023/06/18 05:17:13;;;;;;;1.60;1.10;;;;;;;16.04;100.00;99834.84;6217918;22;20517;-90
2023/06/18 05:19:39;;;;;;;0.65;0.65;;;;;;;16.22;100.00;99854.25;6219083;22;20012;-89
2023/06/18 05:22:05;;;;;;;0.52;0.52;;;;;;;16.28;100.00;99841.91;6218491;22;20018;-89
2023/06/18 05:24:32;;;;;;;0.98;0.93;;;;;;;16.45;100.00;99842.22;6193922;22;20015;-90
2023/06/18 05:26:57;;;;;;;0.45;0.40;;;;;;;16.61;100.00;99849.41;6218294;22;20008;-90
2023/06/18 05:29:23;;;;;;;0.43;0.43;;;;;;;16.71;100.00;99834.81;6243357;22;20420;-90
2023/06/18 05:31:51;;;;;;;0.60;0.60;;;;;;;16.90;100.00;99837.41;6221104;22;20012;-90
2023/06/18 05:34:25;;;;;;;1.20;1.10;;;;;;;17.13;100.00;99840.06;6222966;22;20007;-91
2023/06/18 05:36:51;;;;;;;0.95;0.50;;;;;;;17.30;100.00;99845.94;6195481;22;20387;-90
2023/06/18 05:39:17;;;;;;;0.85;0.60;;;;;;;17.44;100.00;99847.13;6197178;22;20022;-91
2023/06/18 05:41:42;;;;;;;1.30;1.20;;;;;;;17.52;100.00;99826.59;6249515;22;20012;-90
2023/06/18 05:44:08;;;;;;;1.63;1.13;;;;;;;17.79;100.00;99838.72;6219642;22;20267;-91
2023/06/18 05:46:34;;;;;;;1.60;0.75;;;;;;;18.05;100.00;99853.56;6222245;22;20014;-90
2023/06/18 05:48:59;;;;;;;0.77;0.77;;;;;;;18.34;100.00;99855.41;6246949;22;20007;-89
2023/06/18 05:51:27;;;;;;;0.80;0.43;;;;;;;18.55;100.00;99843.66;6248692;22;20400;-89
2023/06/18 05:53:52;;;;;;;0.75;0.75;;;;;;;18.72;100.00;99835.38;6195954;22;20361;-90
2023/06/18 05:56:18;;;;;;;0.93;0.77;;;;;;;19.07;100.00;99849.19;6217842;22;20019;-90
2023/06/18 05:58:45;;;;;;;0.63;0.30;;;;;;;19.31;100.00;99851.66;6272013;22;20004;-89
2023/06/18 06:01:11;;;;;;;0.88;0.65;;;;;;;19.51;100.00;99855.16;6191603;22;20031;-91
2023/06/18 06:03:36;;;;;;;0.28;0.28;;;;;;;19.74;100.00;99838.38;6217090;22;20007;-91
2023/06/18 06:06:03;;;;;;;0.73;0.55;;;;;;;20.09;100.00;99850.03;6211540;23;20016;-92
2023/06/18 06:08:30;;;;;;;0.30;0.30;;;;;;;20.25;96.34;99845.72;6185420;23;20170;-91
2023/06/18 06:10:58;;;;;;;0.60;0.30;;;;;;;20.55;89.96;99831.97;6214299;23;20039;-89
2023/06/18 06:13:24;;;;;;;0.95;0.55;;;;;;;20.88;84.99;99843.25;6210722;23;20008;-90
2023/06/18 06:15:55;;;;;;;0.25;0.25;;;;;;;20.92;83.87;99833.28;6212575;23;20020;-90
2023/06/18 06:18:31;;;;;;;0.65;0.57;;;;;;;21.16;80.77;99852.50;6240973;22;20771;-91
2023/06/18 06:20:58;;;;;;;0.88;0.82;;;;;;;21.28;83.74;99850.44;6213070;23;20047;-92
2023/06/18 06:23:24;;;;;;;0.85;0.85;;;;;;;21.50;84.75;99853.22;6189365;23;20095;-90
2023/06/18 06:25:52;;;;;;;0.90;0.88;;;;;;;21.36;85.92;99855.03;6214279;23;20020;-90
2023/06/18 06:28:18;;;;;;;1.75;0.32;;;;;;;21.53;78.71;99857.81;6239303;23;20016;-91
2023/06/18 06:30:44;;;;;;;0.35;0.35;;;;;;;21.81;78.02;99850.03;6188414;23;20073;-90
2023/06/18 06:33:10;;;;;;;0.32;0.32;;;;;;;21.87;72.94;99841.56;6238831;23;20020;-90
2023/06/18 06:35:54;;;;;;;0.95;0.50;;;;;;;21.94;70.15;99846.69;6189146;23;20012;-90
2023/06/18 06:38:21;;;;;;;;;;;;;;;22.16;70.10;99852.22;6215723;23;20052;-90
2023/06/18 06:40:47;;;;;;;1.58;0.95;;;;;;;22.21;69.35;99848.59;6189016;23;20061;-91
2023/06/18 06:43:12;;;;;;;0.57;0.52;;;;;;;22.09;72.10;99844.28;6239126;23;20546;-89
2023/06/18 06:45:58;;;;;;;0.43;0.35;;;;;;;22.48;66.53;99854.63;6224515;22;20089;-90
2023/06/18 06:48:47;;;;;;;0.75;0.75;;;;;;;22.52;62.78;99846.63;6227794;23;20020;-90
2023/06/18 06:51:28;;;;;;;0.73;0.57;;;;;;;22.69;64.86;99844.47;6240147;23;20032;-90
2023/06/18 06:54:03;;;;;;;0.43;0.35;;;;;;;22.92;65.04;99859.22;6215578;23;20011;-90
2023/06/18 06:56:38;;;;;;;0.70;0.70;;;;;;;23.03;61.72;99851.41;6214207;23;20012;-90
2023/06/18 06:59:04;;;;;;;0.38;0.38;;;;;;;23.25;63.06;99842.69;6213042;23;20020;-90
2023/06/18 07:01:30;;;;;;;0.60;0.47;;;;;;;23.24;62.11;99852.50;6188942;23;20450;-90
2023/06/18 07:03:57;;;;;;;1.38;1.25;;;;;;;23.18;65.57;99851.00;6238719;23;20008;-91
2023/06/18 07:06:23;;;;;;;0.75;0.63;;;;;;;23.42;66.74;99851.00;6258803;22;20007;-91
2023/06/18 07:08:53;;;;;;;0.52;0.52;;;;;;;23.59;65.30;99836.72;6219700;22;20019;-90
2023/06/18 07:11:21;;;;;;;1.25;0.65;;;;;;;23.79;64.35;99816.38;6218244;22;20016;-91
2023/06/18 07:16:57;;;;;;;1.55;0.60;;;;;;;24.17;61.09;99844.78;6243356;22;20020;-91
2023/06/18 07:19:32;;;;;;;0.43;0.43;;;;;;;24.14;57.94;99847.38;6244177;22;20016;-90
2023/06/18 07:22:02;;;;;;;0.93;0.80;;;;;;;24.31;59.87;99844.31;6220898;22;20016;-91
2023/06/18 07:24:29;;;;;;;0.73;0.70;;;;;;;24.64;60.98;99837.38;6218812;22;20440;-91
2023/06/18 07:26:55;;;;;;;1.15;1.05;;;;;;;24.87;60.37;99830.06;6220733;22;20012;-90
2023/06/18 07:29:21;;;;;;;0.93;0.70;;;;;;;25.31;58.61;99836.28;6219612;22;20020;-92
2023/06/18 07:31:46;;;;;;;0.20;0.20;;;;;;;25.57;57.00;99836.31;6195907;22;20026;-91
2023/06/18 07:34:12;;;;;;;1.40;1.23;;;;;;;25.86;53.46;99834.47;6245163;22;20086;-90
2023/06/18 07:36:37;;;;;;;0.75;0.60;;;;;;;25.88;49.23;99826.91;6246838;22;20019;-91
2023/06/18 07:39:03;;;;;;;5.22;0.73;;;;;;;25.98;48.85;99833.69;6246502;22;20436;-93
2023/06/18 07:41:29;;;;;;;0.30;0.30;;;;;;;26.09;48.63;99823.38;6196202;22;20018;-91
2023/06/18 07:43:57;;;;;;;0.43;0.30;;;;;;;26.19;47.34;99832.97;6220152;22;20074;-90
2023/06/18 07:46:23;;;;;;;1.17;1.08;;;;;;;26.28;47.21;99832.56;6220374;22;20019;-90
2023/06/18 07:48:49;;;;;;;0.50;0.50;;;;;;;26.45;48.14;99838.59;6271618;22;20003;-90
2023/06/18 07:51:14;;;;;;;0.15;0.15;;;;;;;26.34;47.71;99836.78;6244592;22;20015;-89
2023/06/18 07:53:40;;;;;;;0.65;0.47;;;;;;;26.08;48.68;99847.44;6272154;22;20050;-90
2023/06/18 07:56:05;;;;;;;0.60;0.47;;;;;;;25.88;51.18;99841.09;6219654;22;20012;-89
2023/06/18 07:58:31;;;;;;;0.95;0.75;;;;;;;26.22;51.17;99848.97;6221300;22;20035;-89
2023/06/18 08:00:59;;;;;;;0.47;0.38;;;;;;;26.57;51.14;99834.19;6244074;22;20050;-93
2023/06/18 08:03:25;;;;;;;0.60;0.60;;;;;;;26.66;49.51;99822.34;6244350;22;20012;-90
2023/06/18 08:05:51;;;;;;;0.45;0.45;;;;;;;26.72;49.76;99833.59;6270307;22;20356;-90
2023/06/18 08:08:20;;;;;;;0.65;0.65;;;;;;;26.94;50.60;99843.66;6244386;22;20074;-92
2023/06/18 08:10:45;;;;;;;1.20;1.13;;;;;;;26.23;49.84;99844.81;6271091;22;20019;-90
2023/06/18 08:13:11;;;;;;;0.40;0.40;;;;;;;26.22;51.16;99838.34;6243661;22;20016;-90
2023/06/18 08:15:37;;;;;;;1.05;0.77;;;;;;;26.54;51.73;99838.13;6272074;22;20105;-90
2023/06/18 08:18:02;;;;;;;0.80;0.47;;;;;;;26.70;48.77;99833.38;6245061;22;20115;-89
2023/06/18 08:20:28;;;;;;;0.57;0.57;;;;;;;27.05;49.05;99832.78;6244480;22;20011;-90
2023/06/18 08:22:53;;;;;;;1.80;1.17;;;;;;;26.65;48.51;99823.66;6237355;22;20000;-90
2023/06/18 08:25:19;;;;;;;0.80;0.65;;;;;;;26.49;48.09;99809.84;6215371;22;20015;-90
2023/06/18 08:27:44;;;;;;;0.43;0.40;;;;;;;26.90;49.32;99832.63;6241930;22;20388;-90
2023/06/18 08:30:10;;;;;;;1.35;0.90;;;;;;;27.21;46.79;99834.44;6241279;22;20026;-90
2023/06/18 08:32:38;;;;;;;1.15;1.08;;;;;;;27.80;46.96;99831.81;6218219;22;20069;-92
2023/06/18 08:35:05;;;;;;;0.63;0.63;;;;;;;27.71;44.71;99841.63;6240675;22;20033;-91
2023/06/18 08:37:31;;;;;;;0.82;0.82;;;;;;;27.84;45.49;99832.22;6272475;22;20015;-88
2023/06/18 08:39:56;;;;;;;0.82;0.77;;;;;;;28.12;46.21;99826.47;6192947;22;20019;-92
2023/06/18 08:42:22;;;;;;;0.35;0.35;;;;;;;28.39;44.86;99834.75;6241631;22;20138;-89
2023/06/18 08:44:50;;;;;;;1.25;1.15;;;;;;;28.60;43.99;99833.25;6218026;22;20011;-91
2023/06/18 08:47:18;;;;;;;0.82;0.73;;;;;;;28.90;43.37;99840.38;6242517;22;20023;-91
2023/06/18 08:49:45;;;;;;;1.05;0.88;;;;;;;29.19;42.26;99844.59;6240625;22;20038;-90
2023/06/18 08:52:18;;;;;;;0.82;0.80;;;;;;;29.09;41.25;99815.06;6215995;22;20343;-91
2023/06/18 08:54:44;;;;;;;0.95;0.75;;;;;;;28.60;43.17;99832.50;6242018;22;20521;-89
2023/06/18 08:57:27;;;;;;;0.38;0.38;;;;;;;28.89;42.96;99824.56;6215636;22;20015;-91
2023/06/18 08:59:54;;;;;;;1.08;0.98;;;;;;;29.13;41.61;99832.59;6215852;22;20011;-92
2023/06/18 09:02:21;;;;;;;0.45;0.30;;;;;;;29.29;41.04;99822.69;6190520;22;20440;-92
2023/06/18 09:04:47;;;;;;;0.80;0.80;;;;;;;29.41;40.90;99823.06;6215872;22;20451;-91
2023/06/18 09:07:15;;;;;;;0.80;0.80;;;;;;;29.74;40.87;99821.84;6242139;22;20018;-91
2023/06/18 09:10:04;;;;;;;1.33;1.23;;;;;;;29.83;38.87;99823.34;6219192;22;20007;-90
2023/06/18 09:12:29;;;;;;;1.23;1.13;;;;;;;29.82;39.28;99818.97;6271524;22;20136;-91
2023/06/18 09:14:56;;;;;;;0.98;0.57;;;;;;;29.90;38.95;99823.34;6217719;22;20011;-91
2023/06/18 09:17:22;;;;;;;0.52;0.52;;;;;;;29.95;39.23;99830.22;6243671;22;20378;-92
2023/06/18 09:19:49;;;;;;;0.28;0.28;;;;;;;29.97;38.72;99816.06;6240678;22;20026;-92
2023/06/18 09:22:22;;;;;;;1.65;1.40;;;;;;;30.02;38.72;99826.56;6241417;22;19999;-90
2023/06/18 09:25:00;;;;;;;0.60;0.50;;;;;;;30.10;38.38;99824.41;6219334;22;20019;-92
2023/06/18 09:27:32;;;;;;;0.60;0.60;;;;;;;30.37;38.98;99831.16;6217707;22;20038;-91
2023/06/18 09:29:58;;;;;;;0.40;0.40;;;;;;;30.63;38.21;99829.13;6215732;22;20035;-91
2023/06/18 09:32:24;;;;;;;0.73;0.73;;;;;;;30.70;38.83;99825.44;6241890;22;20343;-90
2023/06/18 09:34:49;;;;;;;1.15;0.93;;;;;;;30.71;37.81;99826.97;6215275;22;20444;-92
2023/06/18 09:37:16;;;;;;;1.05;0.75;;;;;;;30.72;38.07;99817.03;6215867;22;20019;-91
2023/06/18 09:39:42;;;;;;;1.75;1.30;;;;;;;30.62;37.76;99827.59;6191254;22;20012;-92
2023/06/18 09:42:11;;;;;;;1.08;0.52;;;;;;;30.80;37.43;99826.34;6215849;22;20026;-91
2023/06/18 09:44:37;;;;;;;1.40;0.50;;;;;;;31.06;36.42;99820.03;6216150;22;20019;-91
2023/06/18 09:47:09;;;;;;;0.45;0.45;;;;;;;31.07;37.14;99821.56;6218788;22;20363;-91
2023/06/18 09:49:34;;;;;;;1.73;1.05;;;;;;;31.22;37.40;99818.56;6245082;22;20035;-89
2023/06/18 09:52:00;;;;;;;0.55;0.55;;;;;;;30.97;38.01;99812.09;6219661;22;20007;-89
2023/06/18 09:54:38;;;;;;;1.55;0.85;;;;;;;31.22;37.08;99803.50;6195401;22;20008;-89
2023/06/18 09:57:06;;;;;;;0.93;0.85;;;;;;;31.36;36.15;99808.31;6219523;22;20460;-89
2023/06/18 09:59:31;;;;;;;0.85;0.82;;;;;;;31.44;35.57;99806.13;6243237;22;20008;-90
2023/06/18 10:01:57;;;;;;;0.55;0.50;;;;;;;30.82;35.15;99815.81;6218086;22;20012;-90
2023/06/18 10:04:23;;;;;;;0.77;0.77;;;;;;;30.92;35.63;99819.56;6215846;22;20008;-91
2023/06/18 10:06:58;;;;;;;0.38;0.35;;;;;;;31.04;34.33;99819.88;6242535;22;20482;-92
2023/06/18 10:09:29;;;;;;;2.22;1.45;;;;;;;31.08;35.50;99790.81;6269855;22;20111;-91
2023/06/18 10:11:55;;;;;;;0.77;0.70;;;;;;;31.37;34.56;99804.13;6243062;22;20094;-92
2023/06/18 10:14:25;;;;;;;1.25;1.13;;;;;;;30.92;35.57;99804.47;6218700;22;20096;-90
2023/06/18 10:16:53;;;;;;;0.80;0.77;;;;;;;31.26;35.91;99790.25;6243929;22;20015;-90
2023/06/18 10:19:26;;;;;;;0.52;0.45;;;;;;;31.58;35.55;99800.88;6241270;22;20004;-90
2023/06/18 10:21:58;;;;;;;0.52;0.52;;;;;;;31.83;34.83;99797.88;6243848;22;20106;-91
2023/06/18 10:24:31;;;;;;;1.33;1.15;;;;;;;31.79;34.88;99809.78;6217684;22;20393;-90
2023/06/18 10:26:56;;;;;;;0.52;0.52;;;;;;;32.10;34.18;99798.75;6243616;22;20030;-91
2023/06/18 10:29:22;;;;;;;1.13;0.70;;;;;;;32.10;32.57;99798.75;6193323;22;20019;-90
2023/06/18 10:31:49;;;;;;;0.65;0.65;;;;;;;31.38;33.72;99794.16;6244581;22;20443;-89
2023/06/18 10:34:15;;;;;;;2.13;1.42;;;;;;;31.58;34.44;99802.97;6241041;22;20012;-90
2023/06/18 10:36:40;;;;;;;1.05;0.95;;;;;;;31.66;34.02;99795.06;6217641;22;20030;-91
2023/06/18 10:39:06;;;;;;;1.02;0.73;;;;;;;31.24;34.92;99790.09;6241947;22;20019;-90
2023/06/18 10:41:32;;;;;;;0.60;0.60;;;;;;;31.55;35.43;99795.53;6217618;22;20039;-90
2023/06/18 10:44:06;;;;;;;1.08;1.00;;;;;;;31.77;34.18;99798.16;6219802;22;20016;-90
2023/06/18 10:46:34;;;;;;;5.20;0.82;;;;;;;31.90;31.71;99785.59;6217594;22;20092;-90
2023/06/18 10:49:16;;;;;;;1.42;1.20;;;;;;;31.75;33.59;99802.94;6269924;22;20343;-90
2023/06/18 10:51:57;;;;;;;1.10;0.85;;;;;;;32.20;32.68;99795.91;6244392;22;20030;-92
2023/06/18 10:54:33;;;;;;;0.57;0.57;;;;;;;32.28;32.55;99796.56;6268689;22;20026;-92
2023/06/18 10:56:59;;;;;;;0.80;0.80;;;;;;;32.36;32.42;99797.22;6246666;22;20027;-91
2023/06/18 10:59:37;;;;;;;1.15;0.85;;;;;;;32.41;31.40;99804.06;6243240;22;20072;-90
2023/06/18 11:02:03;;;;;;;1.95;1.35;;;;;;;32.27;31.23;99800.81;6271195;22;20015;-91
2023/06/18 11:04:31;;;;;;;0.77;0.68;;;;;;;31.92;31.97;99794.34;6270139;22;20632;-91
2023/06/18 11:07:18;;;;;;;1.48;1.00;;;;;;;32.10;33.16;99790.13;6244145;22;20012;-91
2023/06/18 11:09:58;;;;;;;0.88;0.88;;;;;;;32.33;31.22;99781.97;6243634;22;20027;-91
2023/06/18 11:12:26;;;;;;;1.30;1.20;;;;;;;32.31;30.42;99796.13;6219436;22;20016;-90
2023/06/18 11:15:17;;;;;;;0.55;0.55;;;;;;;32.25;30.31;99778.44;6270497;22;20530;-91
2023/06/18 11:17:50;;;;;;;0.50;0.50;;;;;;;32.06;28.64;99780.41;6244590;22;20023;-91
2023/06/18 11:20:21;;;;;;;0.70;0.70;;;;;;;32.31;29.67;99778.91;6269580;22;20020;-91
2023/06/18 11:22:55;;;;;;;0.98;0.88;;;;;;;32.44;30.41;99777.78;6244963;22;20082;-92
2023/06/18 11:25:22;;;;;;;0.80;0.80;;;;;;;32.72;30.63;99776.41;6219033;22;20016;-91
2023/06/18 11:27:48;;;;;;;0.95;0.82;;;;;;;32.95;30.32;99748.09;6220080;22;20116;-92
2023/06/18 11:30:15;;;;;;;1.13;1.05;;;;;;;33.35;29.17;99772.69;6243402;22;20015;-90
2023/06/18 11:32:41;;;;;;;0.47;0.47;;;;;;;33.35;28.53;99779.22;6194098;22;20307;-92
2023/06/18 11:35:08;;;;;;;0.90;0.85;;;;;;;32.94;27.65;99766.69;6217259;22;20008;-91
2023/06/18 11:37:41;;;;;;;2.15;1.08;;;;;;;32.69;29.21;99766.13;6218343;22;20608;-91
2023/06/18 11:40:08;;;;;;;1.25;1.15;;;;;;;32.75;28.23;99769.50;6217757;22;20008;-92